Time;durP1;ratioP1;P1;durP2;ratioP2;P2;SDS_P1;SDS_P2;PMS_P1;PMS_P2;Temp;Humidity;BMP_temperature;BMP_pressure;BME280_temperature;BME280_humidity;BME280_pressure;Samples;Min_cycle;Max_cycle;Signal;HPM_P1;HPM_P2
2023/03/25 00:02:15;;;;;;;;;;;;;;;;;;5019361;28;19913;-36
2023/03/25 00:04:42;;;;;;;;;;;;;;;;;;5020008;28;19964;-36
2023/03/25 00:07:08;;;;;;;;;;;;;;;;;;5029654;28;19909;-36
2023/03/25 00:09:34;;;;;;;;;;;;;;;;;;5015827;28;19917;-35
2023/03/25 00:12:01;;;;;;;;;;;;;;;;;;5017935;28;21165;-36
2023/03/25 00:14:27;;;;;;;;;;;;;;;;;;5014213;28;20280;-36
2023/03/25 00:16:54;;;;;;;;;;;;;;;;;;5011928;28;19905;-36
2023/03/25 00:19:20;;;;;;;;;;;;;;;;;;5014136;28;19917;-36
2023/03/25 00:21:49;;;;;;;;;;;;;;;;;;5013266;28;19909;-36
2023/03/25 00:24:16;;;;;;;;;;;;;;;;;;5019990;28;19913;-36
2023/03/25 00:26:43;;;;;;;;;;;;;;;;;;5013236;28;20386;-36
2023/03/25 00:29:10;;;;;;;;;;;;;;;;;;5015553;28;19913;-36
2023/03/25 00:31:37;;;;;;;;;;;;;;;;;;5014289;28;19967;-36
2023/03/25 00:34:03;;;;;;;;;;;;;;;;;;5014572;28;19905;-36
2023/03/25 00:36:30;;;;;;;;;;;;;;;;;;5013876;28;19909;-36
2023/03/25 00:38:57;;;;;;;;;;;;;;;;;;5014255;28;19925;-36
2023/03/25 00:41:26;;;;;;;;;;;;;;;;;;5014502;28;20287;-36
2023/03/25 00:43:53;;;;;;;;;;;;;;;;;;5014322;28;20371;-36
2023/03/25 00:46:19;;;;;;;;;;;;;;;;;;5013649;28;19913;-36
2023/03/25 00:48:46;;;;;;;;;;;;;;;;;;5014159;28;19917;-36
2023/03/25 00:51:20;;;;;;;;;;;;;;;;;;5014742;28;19909;-36
2023/03/25 00:53:46;;;;;;;;;;;;;;;;;;5018262;28;19983;-36
2023/03/25 00:56:13;;;;;;;;;;;;;;;;;;5014763;28;20330;-36
2023/03/25 00:58:40;;;;;;;;;;;;;;;;;;5016807;28;19917;-36
2023/03/25 01:01:07;;;;;;;;;;;;;;;;;;5016455;28;19921;-36
2023/03/25 01:03:35;;;;;;;;;;;;;;;;;;5015110;28;20279;-35
2023/03/25 01:06:02;;;;;;;;;;;;;;;;;;5016653;28;20282;-36
2023/03/25 01:08:30;;;;;;;;;;;;;;;;;;5016622;28;19914;-36
2023/03/25 01:10:57;;;;;;;;;;;;;;;;;;5016817;28;19913;-36
2023/03/25 01:13:23;;;;;;;;;;;;;;;;;;5016452;28;19924;-36
2023/03/25 01:15:50;;;;;;;;;;;;;;;;;;5017478;28;20481;-36
2023/03/25 01:18:16;;;;;;;;;;;;;;;;;;5012050;28;20103;-36
2023/03/25 01:20:43;;;;;;;;;;;;;;;;;;5013682;28;20007;-36
2023/03/25 01:23:10;;;;;;;;;;;;;;;;;;5013835;28;20030;-36
2023/03/25 01:25:36;;;;;;;;;;;;;;;;;;5013604;28;20051;-36
2023/03/25 01:28:02;;;;;;;;;;;;;;;;;;5013373;28;20634;-36
2023/03/25 01:30:29;;;;;;;;;;;;;;;;;;5013934;28;20000;-36
2023/03/25 01:32:56;;;;;;;;;;;;;;;;;;5000861;28;19906;-36
2023/03/25 01:35:22;;;;;;;;;;;;;;;;;;5013224;28;19917;-36
2023/03/25 01:37:48;;;;;;;;;;;;;;;;;;5013358;28;19905;-36
2023/03/25 01:40:15;;;;;;;;;;;;;;;;;;5013629;28;19917;-36
2023/03/25 01:42:41;;;;;;;;;;;;;;;;;;5013417;28;19920;-36
2023/03/25 01:45:08;;;;;;;;;;;;;;;;;;4999194;28;19940;-36
2023/03/25 01:47:35;;;;;;;;;;;;;;;;;;5012891;28;19999;-36
2023/03/25 01:50:02;;;;;;;;;;;;;;;;;;5013620;28;19905;-36
2023/03/25 01:52:29;;;;;;;;;;;;;;;;;;5013135;28;20040;-36
2023/03/25 01:54:55;;;;;;;;;;;;;;;;;;5012650;28;19967;-36
2023/03/25 01:57:22;;;;;;;;;;;;;;;;;;5012264;28;19999;-36
2023/03/25 01:59:48;;;;;;;;;;;;;;;;;;5013070;28;19917;-36
2023/03/25 02:02:16;;;;;;;;;;;;;;;;;;5011732;28;19913;-36
2023/03/25 02:04:43;;;;;;;;;;;;;;;;;;5013110;28;19909;-36
2023/03/25 02:07:09;;;;;;;;;;;;;;;;;;5012280;28;20004;-36
2023/03/25 02:09:36;;;;;;;;;;;;;;;;;;5013185;28;19905;-36
2023/03/25 02:12:02;;;;;;;;;;;;;;;;;;5013127;28;20456;-36
2023/03/25 02:14:28;;;;;;;;;;;;;;;;;;5012941;28;19918;-36
2023/03/25 02:16:55;;;;;;;;;;;;;;;;;;5012456;28;19913;-36
2023/03/25 02:19:21;;;;;;;;;;;;;;;;;;5012539;28;19921;-36
2023/03/25 02:21:49;;;;;;;;;;;;;;;;;;5012990;28;19933;-36
2023/03/25 02:24:15;;;;;;;;;;;;;;;;;;5012943;28;19909;-36
2023/03/25 02:26:42;;;;;;;;;;;;;;;;;;5012511;28;19909;-36
2023/03/25 02:29:08;;;;;;;;;;;;;;;;;;5012838;28;19909;-36
2023/03/25 02:31:34;;;;;;;;;;;;;;;;;;5012691;28;20390;-36
2023/03/25 02:34:01;;;;;;;;;;;;;;;;;;5012797;28;19906;-36
2023/03/25 02:36:29;;;;;;;;;;;;;;;;;;5012284;28;19909;-36
2023/03/25 02:38:56;;;;;;;;;;;;;;;;;;5013005;28;19964;-36
2023/03/25 02:41:24;;;;;;;;;;;;;;;;;;5011837;28;19905;-36
2023/03/25 02:43:50;;;;;;;;;;;;;;;;;;5012013;28;20252;-36
2023/03/25 02:46:17;;;;;;;;;;;;;;;;;;5011801;28;20310;-36
2023/03/25 02:48:43;;;;;;;;;;;;;;;;;;5023294;28;19915;-37
2023/03/25 02:51:10;;;;;;;;;;;;;;;;;;5012283;28;19917;-36
2023/03/25 02:53:36;;;;;;;;;;;;;;;;;;5012325;28;19905;-36
2023/03/25 02:56:02;;;;;;;;;;;;;;;;;;5010031;28;19963;-36
2023/03/25 02:58:29;;;;;;;;;;;;;;;;;;5011843;28;19916;-36
2023/03/25 03:00:58;;;;;;;;;;;;;;;;;;5012157;28;19952;-36
2023/03/25 03:03:25;;;;;;;;;;;;;;;;;;5012142;28;19932;-36
2023/03/25 03:05:52;;;;;;;;;;;;;;;;;;5005739;28;19906;-36
2023/03/25 03:08:19;;;;;;;;;;;;;;;;;;4994754;28;19909;-36
2023/03/25 03:10:45;;;;;;;;;;;;;;;;;;5012432;28;19905;-36
2023/03/25 03:13:12;;;;;;;;;;;;;;;;;;5011847;28;19996;-37
2023/03/25 03:15:39;;;;;;;;;;;;;;;;;;5010862;28;19912;-36
2023/03/25 03:18:06;;;;;;;;;;;;;;;;;;5011644;28;19910;-37
2023/03/25 03:20:33;;;;;;;;;;;;;;;;;;5011467;28;19918;-36
2023/03/25 03:23:00;;;;;;;;;;;;;;;;;;5010991;28;19905;-36
2023/03/25 03:25:27;;;;;;;;;;;;;;;;;;5011772;28;19913;-37
2023/03/25 03:27:53;;;;;;;;;;;;;;;;;;5012250;28;20528;-36
2023/03/25 03:30:20;;;;;;;;;;;;;;;;;;4998908;28;19973;-36
2023/03/25 03:32:47;;;;;;;;;;;;;;;;;;5012000;28;19975;-36
2023/03/25 03:35:13;;;;;;;;;;;;;;;;;;5011992;28;19951;-36
2023/03/25 03:37:40;;;;;;;;;;;;;;;;;;5011989;28;19909;-36
2023/03/25 03:40:07;;;;;;;;;;;;;;;;;;5011187;28;19917;-36
2023/03/25 03:42:34;;;;;;;;;;;;;;;;;;5011964;28;19905;-36
2023/03/25 03:45:00;;;;;;;;;;;;;;;;;;5011812;28;19913;-36
2023/03/25 03:47:27;;;;;;;;;;;;;;;;;;5011864;28;19916;-36
2023/03/25 03:49:54;;;;;;;;;;;;;;;;;;5011826;28;19906;-36
2023/03/25 03:52:21;;;;;;;;;;;;;;;;;;5011591;28;19909;-37
2023/03/25 03:54:48;;;;;;;;;;;;;;;;;;5010908;28;19916;-36
2023/03/25 03:57:14;;;;;;;;;;;;;;;;;;5011473;28;19909;-36
2023/03/25 03:59:41;;;;;;;;;;;;;;;;;;5010944;28;20459;-36
2023/03/25 04:02:08;;;;;;;;;;;;;;;;;;5010544;28;20373;-36
2023/03/25 04:04:37;;;;;;;;;;;;;;;;;;5004780;28;19941;-36
2023/03/25 04:07:04;;;;;;;;;;;;;;;;;;5001900;28;20363;-36
2023/03/25 04:09:33;;;;;;;;;;;;;;;;;;5001160;28;19910;-36
2023/03/25 04:12:00;;;;;;;;;;;;;;;;;;4999622;28;20291;-36
2023/03/25 04:14:27;;;;;;;;;;;;;;;;;;5000644;28;19961;-36
2023/03/25 04:16:54;;;;;;;;;;;;;;;;;;5001332;28;20327;-36
2023/03/25 04:19:20;;;;;;;;;;;;;;;;;;4999542;28;19918;-37
2023/03/25 04:21:47;;;;;;;;;;;;;;;;;;5000888;28;19941;-36
2023/03/25 04:24:15;;;;;;;;;;;;;;;;;;5006452;28;19949;-36
2023/03/25 04:26:42;;;;;;;;;;;;;;;;;;5017063;28;19917;-36
2023/03/25 04:29:08;;;;;;;;;;;;;;;;;;5020670;28;19951;-36
2023/03/25 04:31:36;;;;;;;;;;;;;;;;;;5020700;28;19916;-36
2023/03/25 04:34:03;;;;;;;;;;;;;;;;;;5021984;28;19905;-36
2023/03/25 04:36:41;;;;;;;;;;;;;;;;;;5020564;28;19906;-36
2023/03/25 04:39:08;;;;;;;;;;;;;;;;;;5017924;28;19952;-36
2023/03/25 04:41:34;;;;;;;;;;;;;;;;;;5020998;28;19915;-36
2023/03/25 04:44:00;;;;;;;;;;;;;;;;;;5022099;28;19993;-36
2023/03/25 04:46:27;;;;;;;;;;;;;;;;;;5020206;28;20297;-36
2023/03/25 04:48:55;;;;;;;;;;;;;;;;;;5020983;28;19912;-36
2023/03/25 04:51:22;;;;;;;;;;;;;;;;;;5022755;28;19909;-36
2023/03/25 04:53:48;;;;;;;;;;;;;;;;;;5023939;28;20359;-36
2023/03/25 04:56:15;;;;;;;;;;;;;;;;;;5024311;28;19905;-36
2023/03/25 04:58:41;;;;;;;;;;;;;;;;;;5025315;28;19921;-36
2023/03/25 05:01:10;;;;;;;;;;;;;;;;;;5023769;28;19944;-36
2023/03/25 05:03:38;;;;;;;;;;;;;;;;;;5016341;28;20256;-36
2023/03/25 05:06:06;;;;;;;;;;;;;;;;;;5014895;28;19905;-36
2023/03/25 05:08:33;;;;;;;;;;;;;;;;;;5015023;28;19909;-36
2023/03/25 05:10:59;;;;;;;;;;;;;;;;;;5014988;28;19917;-35
2023/03/25 05:13:25;;;;;;;;;;;;;;;;;;5014657;28;19924;-36
2023/03/25 05:15:52;;;;;;;;;;;;;;;;;;5014914;28;19980;-36
2023/03/25 05:18:18;;;;;;;;;;;;;;;;;;5014635;28;19940;-36
2023/03/25 05:20:45;;;;;;;;;;;;;;;;;;5014749;28;19913;-36
2023/03/25 05:23:14;;;;;;;;;;;;;;;;;;4997072;28;19948;-36
2023/03/25 05:25:41;;;;;;;;;;;;;;;;;;5014658;28;19976;-36
2023/03/25 05:28:08;;;;;;;;;;;;;;;;;;5014777;28;19910;-36
2023/03/25 05:30:37;;;;;;;;;;;;;;;;;;5014486;28;19905;-36
2023/03/25 05:33:04;;;;;;;;;;;;;;;;;;5014314;28;19980;-36
2023/03/25 05:35:30;;;;;;;;;;;;;;;;;;5014548;28;19905;-36
2023/03/25 05:37:56;;;;;;;;;;;;;;;;;;5014412;28;19909;-36
2023/03/25 05:40:24;;;;;;;;;;;;;;;;;;5014430;28;19922;-36
2023/03/25 05:42:53;;;;;;;;;;;;;;;;;;5014135;28;19916;-36
2023/03/25 05:45:20;;;;;;;;;;;;;;;;;;5014134;28;20252;-36
2023/03/25 05:47:46;;;;;;;;;;;;;;;;;;5014264;28;19944;-36
2023/03/25 05:50:16;;;;;;;;;;;;;;;;;;5014269;28;19980;-36
2023/03/25 05:52:42;;;;;;;;;;;;;;;;;;5014125;28;19905;-36
2023/03/25 05:55:09;;;;;;;;;;;;;;;;;;5014078;28;20394;-36
2023/03/25 05:57:35;;;;;;;;;;;;;;;;;;5013571;28;19909;-36
2023/03/25 06:00:03;;;;;;;;;;;;;;;;;;5012657;28;19924;-36
2023/03/25 06:02:31;;;;;;;;;;;;;;;;;;5011295;28;20331;-36
2023/03/25 06:04:58;;;;;;;;;;;;;;;;;;5013511;28;19913;-36
2023/03/25 06:07:24;;;;;;;;;;;;;;;;;;5013891;28;20302;-36
2023/03/25 06:09:53;;;;;;;;;;;;;;;;;;5013635;28;19905;-36
2023/03/25 06:12:19;;;;;;;;;;;;;;;;;;5013648;28;20438;-36
2023/03/25 06:14:45;;;;;;;;;;;;;;;;;;5013645;28;19956;-36
2023/03/25 06:17:12;;;;;;;;;;;;;;;;;;5013705;28;19906;-36
2023/03/25 06:19:38;;;;;;;;;;;;;;;;;;5013600;28;19917;-36
2023/03/25 06:22:05;;;;;;;;;;;;;;;;;;5013602;28;19909;-36
2023/03/25 06:24:32;;;;;;;;;;;;;;;;;;5013491;28;19932;-36
2023/03/25 06:26:58;;;;;;;;;;;;;;;;;;5013585;28;19909;-36
2023/03/25 06:29:25;;;;;;;;;;;;;;;;;;5013611;28;20649;-36
2023/03/25 06:31:51;;;;;;;;;;;;;;;;;;5013539;28;20266;-36
2023/03/25 06:34:17;;;;;;;;;;;;;;;;;;5013505;28;19929;-36
2023/03/25 06:36:44;;;;;;;;;;;;;;;;;;5013301;28;19952;-36
2023/03/25 06:39:10;;;;;;;;;;;;;;;;;;5013230;28;19917;-36
2023/03/25 06:41:37;;;;;;;;;;;;;;;;;;5013039;28;19952;-37
2023/03/25 06:44:04;;;;;;;;;;;;;;;;;;5013167;28;19959;-36
2023/03/25 06:46:30;;;;;;;;;;;;;;;;;;5013212;28;19913;-36
2023/03/25 06:48:57;;;;;;;;;;;;;;;;;;5013067;28;19964;-36
2023/03/25 06:51:23;;;;;;;;;;;;;;;;;;5019002;28;19944;-36
2023/03/25 06:53:49;;;;;;;;;;;;;;;;;;5012597;28;19917;-36
2023/03/25 06:56:16;;;;;;;;;;;;;;;;;;5012518;28;20688;-35
2023/03/25 06:58:42;;;;;;;;;;;;;;;;;;5012455;28;19919;-36
2023/03/25 07:01:09;;;;;;;;;;;;;;;;;;5012354;28;20517;-36
2023/03/25 07:03:35;;;;;;;;;;;;;;;;;;5012271;28;20375;-36
2023/03/25 07:06:02;;;;;;;;;;;;;;;;;;5012220;28;19905;-36
2023/03/25 07:08:28;;;;;;;;;;;;;;;;;;5012265;28;20064;-36
2023/03/25 07:10:55;;;;;;;;;;;;;;;;;;5012499;28;20425;-35
2023/03/25 07:13:21;;;;;;;;;;;;;;;;;;5012434;28;20469;-36
2023/03/25 07:15:47;;;;;;;;;;;;;;;;;;5019948;28;19913;-36
2023/03/25 07:18:14;;;;;;;;;;;;;;;;;;5012338;28;20009;-36
2023/03/25 07:20:41;;;;;;;;;;;;;;;;;;5012350;28;19959;-36
2023/03/25 07:23:08;;;;;;;;;;;;;;;;;;5012395;28;19910;-36
2023/03/25 07:25:34;;;;;;;;;;;;;;;;;;5012401;28;19988;-36
2023/03/25 07:28:01;;;;;;;;;;;;;;;;;;4994441;28;19909;-36
2023/03/25 07:30:27;;;;;;;;;;;;;;;;;;5012336;28;20390;-36
2023/03/25 07:32:53;;;;;;;;;;;;;;;;;;5012058;28;20011;-35
2023/03/25 07:35:20;;;;;;;;;;;;;;;;;;5012303;28;19906;-36
2023/03/25 07:37:46;;;;;;;;;;;;;;;;;;5011881;28;19913;-36
2023/03/25 07:40:13;;;;;;;;;;;;;;;;;;5012220;28;20012;-36
2023/03/25 07:42:42;;;;;;;;;;;;;;;;;;5011745;28;19906;-36
2023/03/25 07:45:09;;;;;;;;;;;;;;;;;;5012016;28;20297;-36
2023/03/25 07:47:35;;;;;;;;;;;;;;;;;;5012008;28;19996;-36
2023/03/25 07:50:01;;;;;;;;;;;;;;;;;;5011911;28;20425;-36
2023/03/25 07:52:34;;;;;;;;;;;;;;;;;;5012209;28;19925;-35
2023/03/25 07:55:01;;;;;;;;;;;;;;;;;;5011797;28;19912;-36
2023/03/25 07:57:27;;;;;;;;;;;;;;;;;;4994200;28;19913;-36
2023/03/25 07:59:54;;;;;;;;;;;;;;;;;;5011760;28;19925;-36
2023/03/25 08:02:20;;;;;;;;;;;;;;;;;;5011872;28;19909;-36
2023/03/25 08:04:46;;;;;;;;;;;;;;;;;;4994180;28;20334;-36
2023/03/25 08:07:13;;;;;;;;;;;;;;;;;;5011976;28;19921;-36
2023/03/25 08:09:39;;;;;;;;;;;;;;;;;;5011701;28;19913;-36
2023/03/25 08:12:06;;;;;;;;;;;;;;;;;;5011646;28;19999;-36
2023/03/25 08:14:32;;;;;;;;;;;;;;;;;;5011725;28;20480;-36
2023/03/25 08:16:59;;;;;;;;;;;;;;;;;;5011862;28;19913;-36
2023/03/25 08:19:25;;;;;;;;;;;;;;;;;;5011707;28;19945;-36
2023/03/25 08:21:52;;;;;;;;;;;;;;;;;;5011698;28;19913;-36
2023/03/25 08:24:18;;;;;;;;;;;;;;;;;;4998669;28;19913;-36
2023/03/25 08:26:44;;;;;;;;;;;;;;;;;;5013311;28;19916;-36
2023/03/25 08:29:11;;;;;;;;;;;;;;;;;;5015334;28;19920;-36
2023/03/25 08:31:39;;;;;;;;;;;;;;;;;;5004892;28;20005;-36
2023/03/25 08:34:05;;;;;;;;;;;;;;;;;;5013052;28;19920;-36
2023/03/25 08:36:32;;;;;;;;;;;;;;;;;;5015447;28;20011;-36
2023/03/25 08:38:58;;;;;;;;;;;;;;;;;;5015166;28;20413;-36
2023/03/25 08:41:24;;;;;;;;;;;;;;;;;;5015370;28;19956;-36
2023/03/25 08:43:51;;;;;;;;;;;;;;;;;;5015086;28;19916;-36
2023/03/25 08:46:17;;;;;;;;;;;;;;;;;;5015285;28;19924;-36
2023/03/25 08:48:44;;;;;;;;;;;;;;;;;;5015102;28;20032;-36
2023/03/25 08:51:10;;;;;;;;;;;;;;;;;;5015195;28;19913;-36
2023/03/25 08:53:36;;;;;;;;;;;;;;;;;;5014796;28;19914;-37
2023/03/25 08:56:03;;;;;;;;;;;;;;;;;;5015373;28;20322;-36
2023/03/25 08:58:29;;;;;;;;;;;;;;;;;;5014841;28;19917;-36
2023/03/25 09:00:56;;;;;;;;;;;;;;;;;;5014952;28;19913;-36
2023/03/25 09:03:22;;;;;;;;;;;;;;;;;;5014730;28;19913;-36
2023/03/25 09:05:49;;;;;;;;;;;;;;;;;;5014856;28;19914;-36
2023/03/25 09:08:15;;;;;;;;;;;;;;;;;;5014645;28;20406;-36
2023/03/25 09:10:42;;;;;;;;;;;;;;;;;;5014854;28;19920;-36
2023/03/25 09:13:08;;;;;;;;;;;;;;;;;;5014198;28;20028;-36
2023/03/25 09:15:34;;;;;;;;;;;;;;;;;;5014631;28;19963;-36
2023/03/25 09:18:01;;;;;;;;;;;;;;;;;;5014594;28;19917;-36
2023/03/25 09:20:27;;;;;;;;;;;;;;;;;;5014556;28;19928;-35
2023/03/25 09:22:54;;;;;;;;;;;;;;;;;;5014418;28;19910;-36
2023/03/25 09:25:20;;;;;;;;;;;;;;;;;;5014415;28;19963;-35
2023/03/25 09:27:46;;;;;;;;;;;;;;;;;;5014364;28;19932;-36
2023/03/25 09:30:14;;;;;;;;;;;;;;;;;;5014557;28;20374;-36
2023/03/25 09:32:40;;;;;;;;;;;;;;;;;;5007751;28;20347;-36
2023/03/25 09:35:07;;;;;;;;;;;;;;;;;;5007805;28;20188;-36
2023/03/25 09:37:33;;;;;;;;;;;;;;;;;;5013605;28;20380;-36
2023/03/25 09:40:00;;;;;;;;;;;;;;;;;;5013807;28;19971;-36
2023/03/25 09:42:26;;;;;;;;;;;;;;;;;;5014129;28;20276;-36
2023/03/25 09:44:52;;;;;;;;;;;;;;;;;;5013909;28;19956;-36
2023/03/25 09:47:19;;;;;;;;;;;;;;;;;;5014103;28;19910;-36
2023/03/25 09:49:45;;;;;;;;;;;;;;;;;;5014044;28;19913;-36
2023/03/25 09:52:12;;;;;;;;;;;;;;;;;;5013757;28;19915;-36
2023/03/25 09:54:39;;;;;;;;;;;;;;;;;;5014011;28;19913;-37
2023/03/25 09:57:05;;;;;;;;;;;;;;;;;;5013805;28;20435;-36
2023/03/25 09:59:31;;;;;;;;;;;;;;;;;;4996252;28;20264;-36
2023/03/25 10:01:58;;;;;;;;;;;;;;;;;;5000342;28;19968;-36
2023/03/25 10:04:24;;;;;;;;;;;;;;;;;;5013865;28;19909;-36
2023/03/25 10:06:51;;;;;;;;;;;;;;;;;;5013499;28;19948;-36
2023/03/25 10:09:17;;;;;;;;;;;;;;;;;;5013649;28;20378;-36
2023/03/25 10:11:44;;;;;;;;;;;;;;;;;;5013499;28;19949;-36
2023/03/25 10:14:10;;;;;;;;;;;;;;;;;;5013322;28;19921;-36
2023/03/25 10:16:36;;;;;;;;;;;;;;;;;;5013531;28;20322;-36
2023/03/25 10:19:03;;;;;;;;;;;;;;;;;;5013272;28;20521;-36
2023/03/25 10:21:29;;;;;;;;;;;;;;;;;;5013333;28;19920;-36
2023/03/25 10:23:56;;;;;;;;;;;;;;;;;;5013236;28;19968;-36
2023/03/25 10:26:22;;;;;;;;;;;;;;;;;;5013374;28;19910;-36
2023/03/25 10:28:49;;;;;;;;;;;;;;;;;;5000275;28;19914;-36
2023/03/25 10:31:15;;;;;;;;;;;;;;;;;;5013243;28;19948;-36
2023/03/25 10:33:42;;;;;;;;;;;;;;;;;;5013017;28;20371;-36
2023/03/25 10:36:08;;;;;;;;;;;;;;;;;;5013178;28;19913;-36
2023/03/25 10:38:34;;;;;;;;;;;;;;;;;;4999867;28;19909;-36
2023/03/25 10:41:01;;;;;;;;;;;;;;;;;;5013132;28;19921;-36
2023/03/25 10:43:27;;;;;;;;;;;;;;;;;;5012987;28;19940;-36
2023/03/25 10:45:53;;;;;;;;;;;;;;;;;;5012915;28;19909;-36
2023/03/25 10:48:20;;;;;;;;;;;;;;;;;;5012791;28;19909;-36
2023/03/25 10:50:46;;;;;;;;;;;;;;;;;;5012838;28;19913;-36
2023/03/25 10:53:12;;;;;;;;;;;;;;;;;;5012582;28;19909;-36
2023/03/25 10:55:40;;;;;;;;;;;;;;;;;;5012989;28;20252;-36
2023/03/25 10:58:07;;;;;;;;;;;;;;;;;;5012640;28;20008;-36
2023/03/25 11:00:33;;;;;;;;;;;;;;;;;;5012585;28;20386;-36
2023/03/25 11:03:00;;;;;;;;;;;;;;;;;;5012444;28;19909;-36
2023/03/25 11:05:27;;;;;;;;;;;;;;;;;;5012625;28;19968;-36
2023/03/25 11:07:54;;;;;;;;;;;;;;;;;;5012548;28;20356;-36
2023/03/25 11:10:20;;;;;;;;;;;;;;;;;;5012611;28;19909;-36
2023/03/25 11:12:47;;;;;;;;;;;;;;;;;;5012133;28;19999;-35
2023/03/25 11:15:13;;;;;;;;;;;;;;;;;;5012188;28;19923;-36
2023/03/25 11:17:39;;;;;;;;;;;;;;;;;;5012491;28;19913;-35
2023/03/25 11:20:09;;;;;;;;;;;;;;;;;;4994369;28;19945;-37
2023/03/25 11:22:36;;;;;;;;;;;;;;;;;;5012299;28;19992;-35
2023/03/25 11:25:02;;;;;;;;;;;;;;;;;;5012393;28;20194;-36
2023/03/25 11:27:29;;;;;;;;;;;;;;;;;;5012325;28;20591;-36
2023/03/25 11:29:55;;;;;;;;;;;;;;;;;;5012025;28;19921;-35
2023/03/25 11:32:22;;;;;;;;;;;;;;;;;;5012237;28;19909;-36
2023/03/25 11:34:48;;;;;;;;;;;;;;;;;;5012180;28;19913;-36
2023/03/25 11:37:15;;;;;;;;;;;;;;;;;;5012306;28;19949;-36
2023/03/25 11:39:42;;;;;;;;;;;;;;;;;;5011933;28;19920;-36
2023/03/25 11:42:08;;;;;;;;;;;;;;;;;;5012098;28;19913;-36
2023/03/25 11:44:35;;;;;;;;;;;;;;;;;;5012013;28;20051;-36
2023/03/25 11:47:01;;;;;;;;;;;;;;;;;;5011953;28;20312;-36
2023/03/25 11:49:28;;;;;;;;;;;;;;;;;;5012435;28;20321;-36
2023/03/25 11:51:56;;;;;;;;;;;;;;;;;;5011829;28;20283;-36
2023/03/25 11:54:22;;;;;;;;;;;;;;;;;;5011255;28;19924;-36
2023/03/25 11:56:49;;;;;;;;;;;;;;;;;;5000180;28;19913;-36
2023/03/25 11:59:15;;;;;;;;;;;;;;;;;;4999143;28;19924;-36
2023/03/25 12:01:42;;;;;;;;;;;;;;;;;;5013227;28;20440;-36
2023/03/25 12:04:08;;;;;;;;;;;;;;;;;;4997701;28;19909;-36
2023/03/25 12:06:34;;;;;;;;;;;;;;;;;;5015838;28;20315;-36
2023/03/25 12:09:01;;;;;;;;;;;;;;;;;;4998079;28;19913;-35
2023/03/25 12:11:27;;;;;;;;;;;;;;;;;;5015782;28;19913;-36
2023/03/25 12:13:54;;;;;;;;;;;;;;;;;;5015804;28;19932;-36
2023/03/25 12:16:20;;;;;;;;;;;;;;;;;;5015647;28;19921;-36
2023/03/25 12:18:47;;;;;;;;;;;;;;;;;;5015264;28;19967;-36
2023/03/25 12:21:13;;;;;;;;;;;;;;;;;;5015162;28;19914;-36
2023/03/25 12:23:39;;;;;;;;;;;;;;;;;;5015697;28;19913;-36
2023/03/25 12:26:06;;;;;;;;;;;;;;;;;;5015510;28;20371;-35
2023/03/25 12:28:32;;;;;;;;;;;;;;;;;;5015628;28;19913;-35
2023/03/25 12:30:58;;;;;;;;;;;;;;;;;;5014579;28;19913;-36
2023/03/25 12:33:27;;;;;;;;;;;;;;;;;;5015497;28;19913;-36
2023/03/25 12:35:53;;;;;;;;;;;;;;;;;;5015128;28;19917;-37
2023/03/25 12:38:19;;;;;;;;;;;;;;;;;;5008785;28;19993;-36
2023/03/25 12:40:46;;;;;;;;;;;;;;;;;;5008664;28;19917;-36
2023/03/25 12:43:12;;;;;;;;;;;;;;;;;;5015131;28;19949;-36
2023/03/25 12:45:38;;;;;;;;;;;;;;;;;;5014742;28;19960;-36
2023/03/25 12:48:05;;;;;;;;;;;;;;;;;;5015164;28;19959;-36
2023/03/25 12:50:31;;;;;;;;;;;;;;;;;;5014996;28;19909;-36
2023/03/25 12:52:58;;;;;;;;;;;;;;;;;;5014866;28;19917;-36
2023/03/25 12:55:24;;;;;;;;;;;;;;;;;;5015058;28;19917;-36
2023/03/25 12:57:51;;;;;;;;;;;;;;;;;;5014752;28;19917;-36
2023/03/25 13:00:17;;;;;;;;;;;;;;;;;;5014691;28;19924;-35
2023/03/25 13:02:43;;;;;;;;;;;;;;;;;;5014533;28;19963;-35
2023/03/25 13:05:10;;;;;;;;;;;;;;;;;;5014801;28;19939;-35
2023/03/25 13:07:36;;;;;;;;;;;;;;;;;;5014673;28;19909;-36
2023/03/25 13:10:03;;;;;;;;;;;;;;;;;;5014103;28;19951;-36
2023/03/25 13:12:30;;;;;;;;;;;;;;;;;;5013477;28;19913;-36
2023/03/25 13:14:56;;;;;;;;;;;;;;;;;;5013425;28;20387;-35
2023/03/25 13:17:23;;;;;;;;;;;;;;;;;;5013123;28;19917;-35
2023/03/25 13:19:49;;;;;;;;;;;;;;;;;;5014254;28;19918;-36
2023/03/25 13:22:16;;;;;;;;;;;;;;;;;;5014110;28;20000;-36
2023/03/25 13:24:42;;;;;;;;;;;;;;;;;;5014695;28;20383;-35
2023/03/25 13:27:08;;;;;;;;;;;;;;;;;;5014481;28;20297;-35
2023/03/25 13:29:35;;;;;;;;;;;;;;;;;;5014774;28;19909;-35
2023/03/25 13:32:01;;;;;;;;;;;;;;;;;;5014534;28;19936;-36
2023/03/25 13:34:28;;;;;;;;;;;;;;;;;;5016246;28;20287;-36
2023/03/25 13:36:55;;;;;;;;;;;;;;;;;;5034210;28;19995;-36
2023/03/25 13:39:21;;;;;;;;;;;;;;;;;;5034256;28;19924;-36
2023/03/25 13:41:47;;;;;;;;;;;;;;;;;;5034102;28;19952;-36
2023/03/25 13:44:14;;;;;;;;;;;;;;;;;;5034129;28;19919;-36
2023/03/25 13:46:40;;;;;;;;;;;;;;;;;;5034125;28;19909;-37
2023/03/25 13:49:06;;;;;;;;;;;;;;;;;;5023618;28;20394;-36
2023/03/25 13:51:33;;;;;;;;;;;;;;;;;;5014210;28;20403;-37
2023/03/25 13:53:59;;;;;;;;;;;;;;;;;;5014302;28;19955;-36
2023/03/25 13:56:26;;;;;;;;;;;;;;;;;;5014200;28;19909;-36
2023/03/25 13:58:52;;;;;;;;;;;;;;;;;;5027359;28;20420;-37
2023/03/25 14:01:20;;;;;;;;;;;;;;;;;;5033903;28;19994;-37
2023/03/25 14:03:46;;;;;;;;;;;;;;;;;;5033696;28;19913;-36
2023/03/25 14:06:13;;;;;;;;;;;;;;;;;;5033423;28;20382;-37
2023/03/25 14:08:39;;;;;;;;;;;;;;;;;;5033611;28;19913;-36
2023/03/25 14:11:05;;;;;;;;;;;;;;;;;;5033750;28;19909;-36
2023/03/25 14:13:32;;;;;;;;;;;;;;;;;;5033058;28;19921;-37
2023/03/25 14:15:58;;;;;;;;;;;;;;;;;;5033597;28;19917;-37
2023/03/25 14:18:24;;;;;;;;;;;;;;;;;;5033143;28;19916;-37
2023/03/25 14:20:51;;;;;;;;;;;;;;;;;;5033483;28;20366;-36
2023/03/25 14:23:18;;;;;;;;;;;;;;;;;;5033437;28;20386;-36
2023/03/25 14:25:45;;;;;;;;;;;;;;;;;;5033125;28;19909;-36
2023/03/25 14:28:11;;;;;;;;;;;;;;;;;;5033429;28;19916;-37
2023/03/25 14:30:38;;;;;;;;;;;;;;;;;;5033260;28;19917;-36
2023/03/25 14:33:05;;;;;;;;;;;;;;;;;;5033278;28;20381;-36
2023/03/25 14:35:35;;;;;;;;;;;;;;;;;;5033233;28;19916;-37
2023/03/25 14:38:01;;;;;;;;;;;;;;;;;;5033064;28;19959;-37
2023/03/25 14:40:28;;;;;;;;;;;;;;;;;;5032759;28;19998;-37
2023/03/25 14:42:54;;;;;;;;;;;;;;;;;;5032926;28;19949;-37
2023/03/25 14:45:23;;;;;;;;;;;;;;;;;;5033095;28;19919;-36
2023/03/25 14:47:50;;;;;;;;;;;;;;;;;;5033208;28;19967;-37
2023/03/25 14:50:16;;;;;;;;;;;;;;;;;;5032935;28;19916;-37
2023/03/25 14:52:42;;;;;;;;;;;;;;;;;;5032827;28;20673;-37
2023/03/25 14:55:09;;;;;;;;;;;;;;;;;;5032813;28;19959;-37
2023/03/25 14:57:35;;;;;;;;;;;;;;;;;;5032421;28;19909;-36
2023/03/25 15:00:08;;;;;;;;;;;;;;;;;;5032579;28;20412;-36
2023/03/25 15:02:35;;;;;;;;;;;;;;;;;;5032545;28;19920;-36
2023/03/25 15:05:02;;;;;;;;;;;;;;;;;;5032236;28;19916;-37
2023/03/25 15:07:28;;;;;;;;;;;;;;;;;;5032054;28;19913;-37
2023/03/25 15:09:55;;;;;;;;;;;;;;;;;;5032632;28;19944;-37
2023/03/25 15:12:21;;;;;;;;;;;;;;;;;;5032483;28;20386;-37
2023/03/25 15:14:47;;;;;;;;;;;;;;;;;;5027015;28;19979;-37
2023/03/25 15:17:14;;;;;;;;;;;;;;;;;;5012711;28;20008;-37
2023/03/25 15:19:40;;;;;;;;;;;;;;;;;;5012576;28;20024;-37
2023/03/25 15:22:09;;;;;;;;;;;;;;;;;;5012650;28;19917;-37
2023/03/25 15:24:36;;;;;;;;;;;;;;;;;;5012580;28;19956;-37
2023/03/25 15:27:02;;;;;;;;;;;;;;;;;;5030767;28;19956;-37
2023/03/25 15:29:30;;;;;;;;;;;;;;;;;;5032356;28;19912;-37
2023/03/25 15:31:57;;;;;;;;;;;;;;;;;;5032108;28;19912;-37
2023/03/25 15:34:23;;;;;;;;;;;;;;;;;;5028577;28;19910;-36
2023/03/25 15:36:51;;;;;;;;;;;;;;;;;;5010822;28;19940;-36
2023/03/25 15:39:17;;;;;;;;;;;;;;;;;;5011848;28;19913;-36
2023/03/25 15:41:43;;;;;;;;;;;;;;;;;;5012051;28;21259;-36
2023/03/25 15:44:10;;;;;;;;;;;;;;;;;;5012317;28;19921;-37
2023/03/25 15:46:36;;;;;;;;;;;;;;;;;;5012154;28;20020;-36
2023/03/25 15:49:03;;;;;;;;;;;;;;;;;;5012074;28;19914;-36
2023/03/25 15:51:31;;;;;;;;;;;;;;;;;;5012041;28;19913;-36
2023/03/25 15:53:57;;;;;;;;;;;;;;;;;;5011909;28;19909;-36
2023/03/25 15:56:23;;;;;;;;;;;;;;;;;;5012014;28;19957;-36
2023/03/25 15:58:50;;;;;;;;;;;;;;;;;;5011798;28;20400;-36
2023/03/25 16:01:16;;;;;;;;;;;;;;;;;;5011742;28;20008;-36
2023/03/25 16:03:43;;;;;;;;;;;;;;;;;;5011417;28;20323;-36
2023/03/25 16:06:09;;;;;;;;;;;;;;;;;;5012038;28;19913;-36
2023/03/25 16:08:35;;;;;;;;;;;;;;;;;;5010576;28;19909;-36
2023/03/25 16:11:02;;;;;;;;;;;;;;;;;;5011709;28;19957;-36
2023/03/25 16:13:28;;;;;;;;;;;;;;;;;;5010426;28;20419;-36
2023/03/25 16:15:55;;;;;;;;;;;;;;;;;;5011169;28;20454;-36
2023/03/25 16:18:21;;;;;;;;;;;;;;;;;;5011359;28;19956;-36
2023/03/25 16:20:47;;;;;;;;;;;;;;;;;;5010488;28;20516;-36
2023/03/25 16:23:14;;;;;;;;;;;;;;;;;;5010676;28;19909;-36
2023/03/25 16:25:40;;;;;;;;;;;;;;;;;;5001265;28;19963;-36
2023/03/25 16:28:07;;;;;;;;;;;;;;;;;;5011462;28;20008;-37
2023/03/25 16:30:35;;;;;;;;;;;;;;;;;;5011256;28;19932;-36
2023/03/25 16:33:01;;;;;;;;;;;;;;;;;;5011030;28;19913;-35
2023/03/25 16:35:28;;;;;;;;;;;;;;;;;;5011447;28;19952;-36
2023/03/25 16:37:54;;;;;;;;;;;;;;;;;;5011516;28;19910;-35
2023/03/25 16:40:21;;;;;;;;;;;;;;;;;;5011416;28;19932;-36
2023/03/25 16:42:47;;;;;;;;;;;;;;;;;;5010906;28;19956;-36